createdAt,value
2023-04-22T00:01:12.903Z,2.30
2023-04-22T00:03:42.256Z,2.33
2023-04-22T00:06:11.123Z,2.15
2023-04-22T00:08:37.964Z,2.30
2023-04-22T00:11:04.772Z,2.22
2023-04-22T00:13:31.513Z,2.10
2023-04-22T00:15:58.309Z,2.10
2023-04-22T00:18:24.998Z,2.10
2023-04-22T00:20:51.903Z,1.77
2023-04-22T00:23:19.138Z,2.13
2023-04-22T00:25:46.127Z,2.30
2023-04-22T00:28:13.000Z,2.30
2023-04-22T00:30:39.738Z,2.08
2023-04-22T00:33:06.469Z,2.10
2023-04-22T00:35:33.231Z,2.45
2023-04-22T00:37:59.920Z,2.28
2023-04-22T00:40:26.934Z,2.30
2023-04-22T00:42:54.835Z,1.90
2023-04-22T00:45:22.010Z,2.92
2023-04-22T00:47:49.234Z,3.10
2023-04-22T00:50:16.494Z,2.70
2023-04-22T00:52:43.260Z,1.88
2023-04-22T00:55:11.203Z,1.80
2023-04-22T00:57:39.442Z,2.72
2023-04-22T01:00:07.343Z,2.10
2023-04-22T01:02:34.479Z,2.15
2023-04-22T01:05:02.006Z,1.83
2023-04-22T01:07:28.956Z,2.15
2023-04-22T01:09:56.581Z,1.88
2023-04-22T01:12:23.311Z,1.90
2023-04-22T01:14:50.051Z,1.80
2023-04-22T01:17:17.236Z,2.05
2023-04-22T01:19:44.579Z,2.05
2023-04-22T01:22:13.772Z,2.25
2023-04-22T01:24:40.791Z,2.40
2023-04-22T01:27:08.333Z,2.50
2023-04-22T01:29:38.173Z,2.28
2023-04-22T01:32:05.854Z,1.90
2023-04-22T01:34:32.665Z,2.30
2023-04-22T01:36:59.518Z,2.83
2023-04-22T01:39:26.452Z,2.50
2023-04-22T01:41:53.617Z,2.70
2023-04-22T01:44:20.369Z,2.97
2023-04-22T01:46:47.063Z,2.70
2023-04-22T01:49:13.747Z,3.33
2023-04-22T01:51:40.649Z,3.28
2023-04-22T01:54:07.753Z,3.33
2023-04-22T01:56:35.308Z,2.97
2023-04-22T01:59:02.022Z,2.78
2023-04-22T02:01:28.716Z,3.17
2023-04-22T02:03:55.529Z,3.00
2023-04-22T02:06:22.287Z,3.25
2023-04-22T02:08:49.025Z,3.17
2023-04-22T02:11:15.990Z,3.60
2023-04-22T02:13:42.723Z,3.20
2023-04-22T02:16:09.612Z,2.70
2023-04-22T02:18:36.593Z,2.80
2023-04-22T02:21:03.344Z,3.00
2023-04-22T02:23:30.247Z,2.88
2023-04-22T02:25:57.127Z,3.08
2023-04-22T02:28:23.944Z,2.72
2023-04-22T02:30:50.615Z,2.72
2023-04-22T02:33:17.337Z,3.17
2023-04-22T02:35:44.045Z,3.47
2023-04-22T02:38:11.279Z,3.30
2023-04-22T02:40:38.000Z,3.10
2023-04-22T02:43:04.699Z,3.50
2023-04-22T02:45:31.597Z,3.03
2023-04-22T02:47:58.379Z,3.35
2023-04-22T02:50:25.099Z,3.10
2023-04-22T02:52:52.092Z,3.22
2023-04-22T02:55:18.893Z,3.22
2023-04-22T02:57:46.008Z,2.90
2023-04-22T03:00:13.524Z,3.15
2023-04-22T03:02:40.383Z,3.20
2023-04-22T03:05:07.642Z,3.20
2023-04-22T03:07:34.315Z,3.08
2023-04-22T03:10:01.019Z,3.10
2023-04-22T03:12:27.694Z,3.35
2023-04-22T03:14:54.335Z,3.20
2023-04-22T03:17:21.036Z,3.38
2023-04-22T03:19:47.815Z,3.50
2023-04-22T03:22:14.483Z,3.65
2023-04-22T03:24:41.217Z,3.17
2023-04-22T03:27:08.112Z,3.63
2023-04-22T03:29:34.807Z,3.80
2023-04-22T03:32:02.677Z,3.65
2023-04-22T03:34:29.376Z,3.70
2023-04-22T03:36:56.060Z,3.08
2023-04-22T03:39:22.741Z,3.40
2023-04-22T03:41:49.381Z,3.22
2023-04-22T03:44:16.110Z,3.40
2023-04-22T03:46:42.808Z,3.75
2023-04-22T03:49:10.047Z,3.50
2023-04-22T03:51:37.284Z,3.22
2023-04-22T03:54:04.044Z,3.80
2023-04-22T03:56:30.725Z,3.78
2023-04-22T03:58:57.384Z,4.88
2023-04-22T04:01:24.052Z,4.65
2023-04-22T04:03:50.859Z,3.50
2023-04-22T04:06:17.695Z,3.28
2023-04-22T04:08:44.404Z,3.40
2023-04-22T04:11:11.805Z,3.40
2023-04-22T04:13:38.519Z,3.30
2023-04-22T04:16:05.715Z,3.30
2023-04-22T04:18:32.692Z,3.65
2023-04-22T04:20:59.425Z,3.72
2023-04-22T04:23:27.167Z,3.20
2023-04-22T04:25:55.612Z,3.15
2023-04-22T04:28:22.454Z,3.00
2023-04-22T04:30:49.188Z,2.80
2023-04-22T04:33:16.760Z,3.05
2023-04-22T04:35:44.825Z,2.50
2023-04-22T04:38:12.797Z,3.00
2023-04-22T04:40:39.505Z,3.00
2023-04-22T04:43:08.587Z,2.70
2023-04-22T04:45:38.807Z,2.95
2023-04-22T04:48:08.984Z,3.03
2023-04-22T04:50:35.754Z,3.03
2023-04-22T04:53:02.752Z,2.65
2023-04-22T04:55:29.555Z,2.60
2023-04-22T04:57:56.384Z,2.45
2023-04-22T05:00:23.087Z,2.42
2023-04-22T05:02:49.896Z,2.50
2023-04-22T05:05:16.774Z,2.50
2023-04-22T05:07:43.557Z,2.85
2023-04-22T05:10:11.354Z,2.88
2023-04-22T05:12:38.059Z,2.83
2023-04-22T05:15:05.492Z,2.70
2023-04-22T05:17:32.216Z,2.70
2023-04-22T05:19:58.891Z,2.20
2023-04-22T05:22:25.669Z,2.20
2023-04-22T05:24:52.340Z,2.17
2023-04-22T05:27:19.097Z,2.20
2023-04-22T05:29:45.798Z,2.42
2023-04-22T05:32:12.562Z,4.13
2023-04-22T05:34:39.212Z,4.93
2023-04-22T05:37:05.902Z,8.05
2023-04-22T05:39:32.783Z,13.07
2023-04-22T05:41:59.474Z,10.07
2023-04-22T05:44:26.174Z,9.48
2023-04-22T05:46:52.839Z,17.92
2023-04-22T05:49:19.543Z,21.08
2023-04-22T05:51:46.487Z,12.32
2023-04-22T05:54:13.165Z,9.63
2023-04-22T05:56:40.295Z,8.07
2023-04-22T05:59:07.003Z,8.95
2023-04-22T06:01:33.675Z,9.32
2023-04-22T06:04:00.650Z,8.85
2023-04-22T06:06:28.337Z,7.68
2023-04-22T06:08:55.062Z,7.40
2023-04-22T06:11:22.098Z,7.70
2023-04-22T06:13:48.910Z,6.85
2023-04-22T06:16:15.752Z,6.20
2023-04-22T06:18:43.693Z,4.10
2023-04-22T06:21:10.640Z,3.20
2023-04-22T06:23:37.359Z,3.28
2023-04-22T06:26:04.491Z,3.08
2023-04-22T06:28:31.172Z,3.22
2023-04-22T06:30:57.902Z,3.20
2023-04-22T06:33:24.581Z,2.90
2023-04-22T06:35:51.459Z,3.40
2023-04-22T06:38:18.263Z,4.07
2023-04-22T06:40:44.992Z,4.10
2023-04-22T06:43:11.812Z,3.78
2023-04-22T06:45:38.484Z,4.80
2023-04-22T06:48:05.222Z,4.67
2023-04-22T06:50:31.993Z,5.68
2023-04-22T06:52:58.731Z,5.10
2023-04-22T06:55:25.557Z,3.83
2023-04-22T06:57:52.368Z,3.30
2023-04-22T07:00:19.165Z,2.95
2023-04-22T07:02:45.887Z,2.95
2023-04-22T07:05:12.933Z,3.10
2023-04-22T07:07:39.745Z,3.10
2023-04-22T07:10:06.764Z,3.10
2023-04-22T07:12:33.466Z,3.10
2023-04-22T07:15:00.217Z,2.80
2023-04-22T07:17:26.955Z,2.95
2023-04-22T07:19:53.799Z,2.60
2023-04-22T07:22:20.881Z,2.60
2023-04-22T07:24:47.749Z,2.63
2023-04-22T07:27:14.541Z,2.65
2023-04-22T07:29:41.615Z,2.40
2023-04-22T07:32:08.915Z,3.10
2023-04-22T07:34:35.633Z,2.25
2023-04-22T07:37:02.360Z,2.22
2023-04-22T07:39:29.143Z,2.17
2023-04-22T07:41:57.707Z,2.17
2023-04-22T07:44:24.580Z,2.22
2023-04-22T07:46:51.389Z,2.47
2023-04-22T07:49:18.396Z,2.10
2023-04-22T07:51:45.220Z,2.33
2023-04-22T07:54:12.395Z,2.08
2023-04-22T07:56:39.273Z,2.00
2023-04-22T07:59:06.265Z,1.98
2023-04-22T08:01:32.949Z,1.90
2023-04-22T08:04:00.030Z,1.90
2023-04-22T08:06:28.168Z,1.90
2023-04-22T08:08:54.981Z,1.92
2023-04-22T08:11:21.967Z,2.10
2023-04-22T08:13:48.686Z,1.90
2023-04-22T08:16:15.588Z,1.80
2023-04-22T08:18:42.389Z,2.00
2023-04-22T08:21:09.277Z,1.80
2023-04-22T08:23:36.127Z,2.15
2023-04-22T08:26:04.327Z,2.30
2023-04-22T08:28:31.041Z,2.30
2023-04-22T08:30:57.736Z,2.17
2023-04-22T08:33:26.647Z,2.00
2023-04-22T08:35:54.052Z,1.70
2023-04-22T08:38:21.126Z,1.90
2023-04-22T08:40:48.418Z,2.33
2023-04-22T08:43:15.303Z,2.20
2023-04-22T08:45:42.462Z,2.28
2023-04-22T08:48:09.925Z,1.80
2023-04-22T08:50:39.567Z,2.10
2023-04-22T08:53:06.652Z,1.80
2023-04-22T08:55:35.359Z,1.95
2023-04-22T08:58:04.385Z,1.90
2023-04-22T09:00:34.308Z,2.10
2023-04-22T09:03:06.158Z,1.67
2023-04-22T09:05:34.141Z,1.73
2023-04-22T09:08:02.203Z,1.75
2023-04-22T09:10:31.401Z,1.42
2023-04-22T09:13:00.148Z,1.90
2023-04-22T09:15:27.803Z,1.80
2023-04-22T09:17:54.595Z,1.70
2023-04-22T09:20:27.801Z,1.85
2023-04-22T09:22:56.757Z,1.60
2023-04-22T09:25:26.224Z,1.80
2023-04-22T09:27:54.582Z,1.50
2023-04-22T09:30:32.874Z,1.50
2023-04-22T09:33:02.709Z,1.50
2023-04-22T09:35:33.185Z,1.58
2023-04-22T09:38:02.054Z,1.60
2023-04-22T09:40:29.975Z,1.42
2023-04-22T09:43:01.244Z,1.70
2023-04-22T09:45:41.836Z,1.58
2023-04-22T09:48:12.596Z,1.50
2023-04-22T09:50:44.369Z,1.50
2023-04-22T09:53:14.017Z,1.50
2023-04-22T09:55:46.788Z,1.38
2023-04-22T09:58:15.556Z,1.50
2023-04-22T10:00:44.481Z,1.40
2023-04-22T10:03:11.588Z,1.50
2023-04-22T10:05:38.626Z,1.60
2023-04-22T10:08:07.012Z,1.73
2023-04-22T10:10:33.988Z,1.40
2023-04-22T10:13:01.806Z,1.42
2023-04-22T10:15:40.269Z,1.65
2023-04-22T10:18:11.050Z,1.55
2023-04-22T10:20:40.583Z,1.70
2023-04-22T10:23:19.173Z,1.65
2023-04-22T10:25:53.019Z,1.55
2023-04-22T10:28:22.037Z,1.60
2023-04-22T10:30:49.297Z,1.33
2023-04-22T10:33:23.753Z,1.60
2023-04-22T10:38:40.642Z,1.35
2023-04-22T10:41:07.758Z,1.90
2023-04-22T10:44:01.849Z,1.60
2023-04-22T10:46:38.047Z,1.45
2023-04-22T10:49:13.058Z,1.40
2023-04-22T10:51:51.506Z,1.25
2023-04-22T10:54:32.494Z,1.67
2023-04-22T10:57:19.142Z,1.60
2023-04-22T10:59:53.224Z,1.40
2023-04-22T11:02:21.325Z,1.17
2023-04-22T11:04:48.723Z,1.48
2023-04-22T11:07:18.271Z,1.50
2023-04-22T11:10:21.212Z,1.48
2023-04-22T11:12:50.010Z,1.40
2023-04-22T11:15:22.320Z,1.13
2023-04-22T11:17:54.277Z,1.30
2023-04-22T11:20:21.802Z,1.27
2023-04-22T11:22:57.450Z,1.20
2023-04-22T11:25:25.909Z,1.08
2023-04-22T11:27:53.729Z,1.10
2023-04-22T11:30:23.620Z,1.08
2023-04-22T11:32:53.272Z,1.70
2023-04-22T11:35:25.508Z,1.33
2023-04-22T11:38:01.590Z,1.00
2023-04-22T11:40:35.818Z,1.20
2023-04-22T11:43:07.430Z,1.25
2023-04-22T11:45:35.820Z,1.30
2023-04-22T11:48:04.922Z,1.30
2023-04-22T11:50:34.007Z,1.10
2023-04-22T11:53:16.777Z,1.10
2023-04-22T11:55:44.787Z,1.25
2023-04-22T11:58:17.190Z,1.05
2023-04-22T12:00:48.934Z,1.17
2023-04-22T12:03:20.278Z,1.20
2023-04-22T12:05:52.427Z,0.95
2023-04-22T12:08:21.658Z,1.15
2023-04-22T12:10:55.227Z,1.10
2023-04-22T12:13:34.772Z,1.10
2023-04-22T12:16:04.461Z,1.27
2023-04-22T12:18:32.985Z,1.27
2023-04-22T12:21:10.270Z,1.40
2023-04-22T12:23:59.101Z,1.30
2023-04-22T12:26:27.752Z,1.30
2023-04-22T12:28:56.721Z,1.15
2023-04-22T12:31:23.644Z,1.40
2023-04-22T12:33:50.889Z,1.50
2023-04-22T12:36:20.803Z,1.60
2023-04-22T12:38:47.934Z,1.40
2023-04-22T12:41:15.832Z,1.45
2023-04-22T12:43:42.606Z,1.70
2023-04-22T12:46:10.145Z,1.50
2023-04-22T12:48:37.604Z,1.73
2023-04-22T12:51:05.766Z,1.60
2023-04-22T12:53:32.472Z,2.10
2023-04-22T12:55:59.285Z,1.70
2023-04-22T12:58:26.489Z,1.88
2023-04-22T13:00:53.363Z,1.67
2023-04-22T13:03:20.238Z,1.77
2023-04-22T13:05:47.122Z,1.88
2023-04-22T13:08:13.822Z,1.65
2023-04-22T13:10:40.832Z,1.50
2023-04-22T13:15:38.875Z,1.65
2023-04-22T13:18:06.131Z,1.83
2023-04-22T13:20:32.946Z,1.90
2023-04-22T13:22:59.647Z,2.00
2023-04-22T13:25:26.328Z,1.83
2023-04-22T13:27:53.068Z,1.50
2023-04-22T13:30:20.134Z,1.40
2023-04-22T13:32:46.965Z,1.70
2023-04-22T13:35:13.749Z,1.50
2023-04-22T13:37:40.532Z,1.60
2023-04-22T13:40:08.431Z,1.50
2023-04-22T13:42:35.473Z,1.50
2023-04-22T13:45:02.173Z,1.50
2023-04-22T13:47:28.923Z,1.40
2023-04-22T13:49:55.687Z,1.60
2023-04-22T13:52:22.421Z,1.30
2023-04-22T13:54:49.125Z,1.48
2023-04-22T13:57:15.789Z,1.58
2023-04-22T13:59:42.628Z,1.48
2023-04-22T14:02:09.588Z,1.30
2023-04-22T14:04:36.387Z,1.40
2023-04-22T14:07:04.196Z,1.15
2023-04-22T14:09:31.345Z,1.38
2023-04-22T14:11:58.385Z,1.63
2023-04-22T14:14:25.282Z,1.50
2023-04-22T14:16:52.312Z,1.52
2023-04-22T14:19:19.534Z,1.48
2023-04-22T14:21:46.280Z,1.88
2023-04-22T14:24:13.155Z,1.70
2023-04-22T14:26:40.104Z,1.50
2023-04-22T14:29:06.863Z,1.70
2023-04-22T14:31:34.245Z,1.50
2023-04-22T14:34:01.208Z,1.65
2023-04-22T14:36:28.014Z,1.75
2023-04-22T14:38:54.779Z,1.92
2023-04-22T14:41:21.687Z,1.80
2023-04-22T14:43:48.489Z,1.63
2023-04-22T14:46:15.274Z,1.60
2023-04-22T14:48:41.974Z,1.83
2023-04-22T14:51:08.716Z,1.70
2023-04-22T14:53:35.657Z,1.70
2023-04-22T14:56:02.394Z,1.73
2023-04-22T14:58:31.763Z,1.67
2023-04-22T15:00:59.852Z,1.73
2023-04-22T15:03:27.261Z,1.70
2023-04-22T15:05:55.664Z,1.55
2023-04-22T15:08:25.184Z,1.50
2023-04-22T15:10:51.965Z,1.60
2023-04-22T15:13:19.685Z,1.80
2023-04-22T15:15:47.016Z,1.67
2023-04-22T15:18:13.932Z,1.60
2023-04-22T15:20:41.710Z,1.58
2023-04-22T15:23:08.406Z,1.60
2023-04-22T15:25:35.783Z,1.60
2023-04-22T15:28:03.009Z,1.83
2023-04-22T15:30:29.973Z,1.55
2023-04-22T15:32:56.756Z,2.00
2023-04-22T15:35:24.402Z,2.10
2023-04-22T15:37:51.098Z,2.40
2023-04-22T15:40:17.834Z,2.20
2023-04-22T15:42:44.730Z,2.40
2023-04-22T15:45:11.825Z,2.53
2023-04-22T15:47:40.677Z,2.50
2023-04-22T15:50:09.732Z,2.50
2023-04-22T15:52:37.840Z,2.65
2023-04-22T15:55:08.273Z,2.40
2023-04-22T15:57:35.635Z,2.83
2023-04-22T16:00:12.435Z,2.65
2023-04-22T16:02:41.229Z,2.28
2023-04-22T16:05:08.509Z,2.10
2023-04-22T16:07:35.498Z,1.92
2023-04-22T16:10:02.499Z,2.13
2023-04-22T16:12:29.862Z,2.03
2023-04-22T16:14:57.709Z,2.13
2023-04-22T16:17:25.093Z,2.00
2023-04-22T16:19:51.929Z,1.90
2023-04-22T16:22:18.719Z,2.30
2023-04-22T16:24:45.645Z,2.15
2023-04-22T16:27:16.424Z,1.85
2023-04-22T16:29:43.774Z,2.47
2023-04-22T16:32:11.308Z,2.75
2023-04-22T16:34:38.354Z,2.45
2023-04-22T16:37:05.803Z,2.15
2023-04-22T16:39:32.847Z,2.72
2023-04-22T16:41:59.857Z,2.28
2023-04-22T16:44:26.603Z,2.83
2023-04-22T16:46:53.312Z,2.85
2023-04-22T16:49:20.199Z,3.00
2023-04-22T16:51:47.022Z,2.60
2023-04-22T16:54:13.776Z,2.45
2023-04-22T16:56:41.499Z,3.10
2023-04-22T16:59:08.268Z,3.75
2023-04-22T17:01:35.040Z,2.88
2023-04-22T17:04:02.053Z,2.40
2023-04-22T17:06:28.993Z,3.17
2023-04-22T17:08:55.690Z,2.90
2023-04-22T17:11:23.967Z,4.63
2023-04-22T17:13:51.493Z,5.40
2023-04-22T17:16:18.536Z,3.70
2023-04-22T17:18:47.050Z,3.72
2023-04-22T17:21:13.930Z,2.90
2023-04-22T17:23:40.695Z,3.40
2023-04-22T17:26:07.413Z,3.88
2023-04-22T17:28:34.471Z,3.35
2023-04-22T17:31:01.270Z,4.70
2023-04-22T17:33:29.134Z,4.68
2023-04-22T17:35:57.106Z,4.45
2023-04-22T17:38:23.798Z,3.50
2023-04-22T17:40:50.500Z,3.95
2023-04-22T17:43:17.215Z,3.80
2023-04-22T17:45:44.135Z,3.85
2023-04-22T17:48:11.280Z,3.92
2023-04-22T17:50:38.011Z,4.47
2023-04-22T17:53:04.770Z,3.53
2023-04-22T17:55:34.996Z,3.47
2023-04-22T17:58:05.601Z,4.53
2023-04-22T18:00:33.719Z,3.67
2023-04-22T18:03:00.836Z,4.65
2023-04-22T18:05:27.933Z,3.38
2023-04-22T18:08:04.367Z,3.88
2023-04-22T18:10:31.211Z,2.75
2023-04-22T18:12:57.897Z,3.45
2023-04-22T18:15:24.665Z,3.30
2023-04-22T18:17:51.878Z,3.60
2023-04-22T18:20:19.835Z,3.53
2023-04-22T18:22:48.851Z,3.53
2023-04-22T18:25:16.539Z,3.15
2023-04-22T18:27:43.683Z,3.30
2023-04-22T18:30:10.888Z,2.83
2023-04-22T18:32:38.041Z,3.08
2023-04-22T18:35:05.231Z,3.40
2023-04-22T18:37:34.581Z,3.40
2023-04-22T18:40:01.864Z,3.40
2023-04-22T18:42:29.031Z,4.15
2023-04-22T18:44:55.724Z,4.00
2023-04-22T18:47:22.433Z,6.25
2023-04-22T18:49:49.395Z,5.40
2023-04-22T18:52:17.147Z,5.90
2023-04-22T18:54:44.228Z,5.38
2023-04-22T18:57:11.157Z,5.93
2023-04-22T18:59:37.869Z,9.32
2023-04-22T19:02:05.201Z,7.68
2023-04-22T19:04:31.999Z,5.40
2023-04-22T19:06:59.325Z,4.85
2023-04-22T19:09:26.105Z,4.10
2023-04-22T19:11:53.119Z,4.60
2023-04-22T19:14:19.981Z,4.80
2023-04-22T19:16:46.783Z,9.73
2023-04-22T19:19:14.000Z,11.05
2023-04-22T19:21:41.112Z,4.10
2023-04-22T19:24:08.223Z,3.95
2023-04-22T19:26:35.194Z,5.30
2023-04-22T19:29:02.176Z,4.00
2023-04-22T19:31:29.458Z,3.90
2023-04-22T19:33:56.294Z,4.68
2023-04-22T19:36:23.135Z,4.13
2023-04-22T19:38:49.872Z,4.00
2023-04-22T19:41:16.631Z,3.33
2023-04-22T19:43:43.440Z,3.67
2023-04-22T19:46:10.336Z,4.20
2023-04-22T19:48:37.401Z,4.85
2023-04-22T19:51:05.582Z,3.83
2023-04-22T19:53:33.104Z,4.63
2023-04-22T19:55:59.967Z,3.85
2023-04-22T19:58:28.480Z,3.60
2023-04-22T20:00:55.923Z,3.70
2023-04-22T20:03:23.081Z,3.28
2023-04-22T20:05:50.892Z,3.05
2023-04-22T20:08:19.797Z,3.88
2023-04-22T20:10:49.595Z,3.40
2023-04-22T20:13:17.363Z,2.90
2023-04-22T20:15:44.488Z,3.13
2023-04-22T20:18:12.112Z,3.20
2023-04-22T20:20:40.662Z,3.15
2023-04-22T20:23:10.583Z,3.40
2023-04-22T20:25:44.098Z,4.07
2023-04-22T20:28:11.291Z,2.75
2023-04-22T20:30:38.387Z,2.80
2023-04-22T20:33:05.450Z,2.70
2023-04-22T20:35:32.416Z,2.80
2023-04-22T20:38:00.526Z,3.45
2023-04-22T20:40:28.840Z,3.28
2023-04-22T20:42:57.897Z,2.90
2023-04-22T20:45:24.928Z,2.80
2023-04-22T20:47:52.946Z,2.83
2023-04-22T20:50:20.830Z,3.60
2023-04-22T20:52:49.064Z,3.30
2023-04-22T20:55:17.238Z,3.10
2023-04-22T20:57:44.033Z,2.95
2023-04-22T21:00:11.604Z,2.90
2023-04-22T21:02:39.398Z,2.88
2023-04-22T21:05:06.713Z,3.05
2023-04-22T21:07:35.113Z,2.97
2023-04-22T21:10:02.119Z,3.03
2023-04-22T21:12:29.368Z,3.45
2023-04-22T21:14:56.422Z,3.50
2023-04-22T21:17:29.142Z,3.60
2023-04-22T21:19:58.079Z,4.00
2023-04-22T21:22:25.615Z,4.03
2023-04-22T21:24:52.838Z,3.80
2023-04-22T21:27:21.648Z,3.65
2023-04-22T21:29:49.387Z,3.50
2023-04-22T21:32:16.741Z,3.00
2023-04-22T21:34:44.415Z,2.70
2023-04-22T21:37:11.886Z,3.15
2023-04-22T21:39:39.580Z,2.95
2023-04-22T21:42:08.596Z,3.20
2023-04-22T21:44:37.126Z,3.05
2023-04-22T21:47:04.772Z,3.15
2023-04-22T21:49:31.623Z,3.30
2023-04-22T21:51:59.017Z,3.35
2023-04-22T21:54:25.887Z,3.58
2023-04-22T21:56:52.748Z,3.13
2023-04-22T21:59:19.542Z,3.13
2023-04-22T22:01:46.383Z,3.60
2023-04-22T22:04:15.751Z,3.35
2023-04-22T22:06:43.536Z,3.45
2023-04-22T22:09:11.602Z,3.28
2023-04-22T22:11:38.353Z,3.53
2023-04-22T22:14:05.214Z,4.03
2023-04-22T22:16:32.161Z,3.67
2023-04-22T22:18:58.900Z,3.25
2023-04-22T22:21:25.583Z,3.35
2023-04-22T22:23:52.427Z,3.55
2023-04-22T22:26:19.558Z,3.58
2023-04-22T22:28:46.367Z,3.75
2023-04-22T22:31:13.090Z,3.60
2023-04-22T22:33:39.859Z,3.60
2023-04-22T22:36:06.793Z,3.60
2023-04-22T22:38:33.444Z,3.78
2023-04-22T22:41:00.154Z,3.83
2023-04-22T22:43:26.954Z,3.75
2023-04-22T22:45:53.876Z,3.97
2023-04-22T22:48:21.076Z,3.60
2023-04-22T22:50:49.077Z,3.53
2023-04-22T22:53:15.987Z,3.53
2023-04-22T22:55:42.660Z,3.65
2023-04-22T22:58:09.332Z,3.90
2023-04-22T23:00:37.276Z,3.53
2023-04-22T23:03:04.473Z,3.85
2023-04-22T23:05:31.886Z,3.92
2023-04-22T23:07:58.584Z,4.10
2023-04-22T23:10:25.379Z,3.95
2023-04-22T23:12:52.126Z,4.22
2023-04-22T23:15:18.886Z,4.63
2023-04-22T23:17:45.928Z,4.10
2023-04-22T23:20:13.043Z,3.97
2023-04-22T23:22:40.596Z,3.78
2023-04-22T23:25:08.634Z,4.30
2023-04-22T23:27:35.967Z,4.10
2023-04-22T23:30:04.515Z,4.15
2023-04-22T23:32:33.093Z,4.43
2023-04-22T23:35:01.922Z,4.53
2023-04-22T23:37:29.520Z,4.78
2023-04-22T23:39:56.264Z,4.90
2023-04-22T23:42:22.950Z,3.90
2023-04-22T23:44:49.794Z,3.83
2023-04-22T23:47:16.957Z,4.63
2023-04-22T23:49:43.977Z,4.05
2023-04-22T23:52:13.000Z,4.20
2023-04-22T23:54:41.434Z,4.20
2023-04-22T23:57:08.938Z,3.97
2023-04-22T23:59:35.994Z,5.13
